Latest Weather Observations for Bendigo

IDV60801

Issued at 4:32 am EST Monday 27 June 2016 (issued every 30 minutes, with the page automatically refreshed every 10 minutes)

About weather observations | Map of weather stations | Latest weather observations for VIC | Other Formats
Station Details ID: 081123 Name: BENDIGO AIRPORT Lat: -36.74 Lon: 144.33 Height: 208.0 m
Data from the previous 72 hours. | See also: Recent months at Bendigo
Date/Time
EST
Temp
°C
App
Temp
°C
Dew
Point
°C
Rel
Hum
%
Delta-T
°C
Wind Press
QNH
hPa
Press
MSL
hPa
Rain since
9am
mm
Dir  Spd
km/h
Gust
km/h
Spd
kts
Gust
kts
27/04:30am 3.9 2.4 3.2 95 0.3 CALM 0 0 0 0 1016.7 1017.1 0.0
27/04:00am 3.9 2.4 3.0 94 0.4 CALM 0 0 0 0 1017.0 1017.3 0.0
27/03:30am 4.1 2.6 3.2 94 0.4 CALM 0 0 0 0 1017.2 1017.5 0.0
27/03:00am 3.7 2.2 3.1 96 0.2 CALM 0 0 0 0 1017.1 1017.4 0.0
27/02:30am 3.7 2.2 3.1 96 0.2 CALM 0 0 0 0 1017.1 1017.4 0.0
27/02:00am 3.2 1.6 2.6 96 0.2 CALM 0 0 0 0 1017.2 1017.5 0.0
27/01:30am 2.7 1.0 2.0 95 0.3 CALM 0 0 0 0 1017.2 1017.5 0.0
27/01:18am 2.8 1.1 2.1 95 0.3 CALM 0 0 0 0 1017.2 1017.5 0.0
27/01:00am 2.8 1.1 1.9 94 0.4 CALM 0 0 0 0 1017.1 1017.4 0.0
27/12:57am 2.9 1.2 2.0 94 0.4 CALM 0 0 0 0 1017.1 1017.4 0.0
27/12:30am 3.7 2.1 2.7 93 0.4 CALM 0 6 0 3 1017.2 1017.5 0.0
27/12:00am 3.8 2.3 2.8 93 0.4 CALM 0 0 0 0 1017.0 1017.3 0.0
 
Date/Time
EST
Temp
°C
App
Temp
°C
Dew
Point
°C
Rel
Hum
%
Delta-T
°C
Wind Press
QNH
hPa
Press
MSL
hPa
Rain since
9am
mm
Dir  Spd
km/h
Gust
km/h
Spd
kts
Gust
kts
26/11:30pm 4.3 2.5 3.6 95 0.3 N 2 11 1 6 1017.0 1017.3 0.0
26/11:00pm 4.0 2.6 3.3 95 0.3 CALM 0 0 0 0 1017.2 1017.5 0.0
26/10:30pm 4.1 2.7 3.4 95 0.3 CALM 0 0 0 0 1017.4 1017.7 0.0
26/10:00pm 4.3 2.9 3.4 94 0.4 CALM 0 0 0 0 1017.4 1017.7 0.0
26/09:30pm 4.5 2.3 3.5 93 0.4 NE 4 7 2 4 1017.4 1017.7 0.0
26/09:00pm 4.9 3.6 3.9 93 0.4 CALM 0 0 0 0 1017.6 1017.9 0.0
26/08:30pm 5.2 3.9 4.0 92 0.5 CALM 0 0 0 0 1017.8 1018.1 0.0
26/08:00pm 5.2 3.9 3.9 91 0.6 CALM 0 0 0 0 1017.8 1018.1 0.0
26/07:30pm 5.1 3.7 3.8 91 0.6 CALM 0 0 0 0 1017.7 1018.0 0.0
26/07:00pm 4.9 3.5 3.6 91 0.5 CALM 0 0 0 0 1017.5 1017.8 0.0
26/06:30pm 5.3 3.9 3.5 88 0.8 CALM 0 6 0 3 1017.4 1017.7 0.0
26/06:00pm 5.5 4.1 3.5 87 0.8 CALM 0 0 0 0 1017.3 1017.6 0.0
26/05:30pm 5.5 4.0 3.0 84 1.0 CALM 0 0 0 0 1017.3 1017.6 0.0
26/05:00pm 6.8 4.2 3.4 79 1.4 NNE 6 7 3 4 1017.3 1017.6 0.0
26/04:30pm 7.3 4.5 3.0 74 1.8 N 7 11 4 6 1017.3 1017.6 0.0
26/04:00pm 7.5 4.7 3.2 74 1.8 NNW 7 9 4 5 1017.4 1017.7 0.0
26/03:30pm 7.7 3.7 3.0 72 2.0 NW 13 17 7 9 1017.6 1017.9 0.0
26/03:00pm 7.7 4.5 3.2 73 1.9 N 9 15 5 8 1017.8 1018.1 0.0
26/02:30pm 7.9 4.5 3.8 75 1.8 N 11 15 6 8 1017.9 1018.2 0.0
26/02:00pm 7.8 4.3 3.5 74 1.9 N 11 17 6 9 1018.2 1018.5 0.0
26/01:30pm 7.2 4.6 4.2 81 1.3 NNE 7 13 4 7 1018.7 1019.1 0.0
26/01:00pm 6.6 4.0 4.1 84 1.1 N 7 9 4 5 1019.1 1019.5 0.0
26/12:30pm 6.3 3.2 3.8 84 1.1 NNW 9 13 5 7 1019.5 1019.9 0.0
26/12:00pm 6.1 4.8 4.1 87 0.9 CALM 0 6 0 3 1019.6 1020.0 0.0
26/11:30am 5.5 4.2 4.0 90 0.6 CALM 0 0 0 0 1020.0 1020.4 0.0
26/11:00am 5.1 3.8 4.1 93 0.4 CALM 0 7 0 4 1020.1 1020.5 0.0
26/10:30am 4.2 2.0 3.6 96 0.3 ESE 4 7 2 4 1020.2 1020.6 0.0
26/10:00am 3.4 0.7 2.8 96 0.2 ESE 6 9 3 5 1020.6 1021.0 0.0
26/09:30am 3.2 1.7 2.8 97 0.2 CALM 0 0 0 0 1020.9 1021.3 0.0
26/09:00am 2.7 1.1 2.3 97 0.2 CALM 0 0 0 0 1021.3 1021.7 0.2
26/08:30am 1.0 -0.9 0.6 97 0.1 CALM 0 0 0 0 1021.4 1021.8 0.0
26/08:00am 0.5 -1.5 0.1 97 0.1 CALM 0 0 0 0 1021.5 1021.9 0.0
26/07:30am 0.0 -2.0 -0.4 97 0.1 CALM 0 0 0 0 1021.5 1021.9 0.0
26/07:13am -0.3 -2.4 -0.9 96 0.2 CALM 0 0 0 0 1021.4 1021.8 0.0
26/07:03am -0.6 -2.8 -1.2 96 0.2 CALM 0 0 0 0 1021.4 1021.8 0.0
26/07:00am -0.6 -2.8 -1.2 96 0.2 CALM 0 0 0 0 1021.4 1021.8 0.0
26/06:45am -1.3 -3.5 -1.9 96 0.1 CALM 0 0 0 0 1021.4 1021.8 0.0
26/06:30am -1.6 -3.9 -2.2 96 0.1 CALM 0 0 0 0 1021.1 1021.5 0.0
26/06:00am -1.6 -3.9 -2.2 96 0.1 CALM 0 0 0 0 1020.8 1021.2 0.0
26/05:30am -1.2 -3.4 -1.8 96 0.2 CALM 0 0 0 0 1020.5 1020.9 0.0
26/05:10am -1.3 -3.5 -1.9 96 0.1 CALM 0 0 0 0 1020.5 1020.9 0.0
26/05:00am -1.3 -3.5 -1.9 96 0.1 CALM 0 0 0 0 1020.6 1021.0 0.0
26/04:30am -1.0 -3.2 -1.6 96 0.2 CALM 0 0 0 0 1020.6 1021.0 0.0
26/04:26am -0.9 -3.1 -1.5 96 0.2 CALM 0 0 0 0 1020.6 1021.0 0.0
26/04:06am -0.7 -2.9 -1.3 96 0.2 CALM 0 0 0 0 1020.7 1021.1 0.0
26/04:00am -0.7 -2.9 -1.3 96 0.2 CALM 0 0 0 0 1020.6 1021.0 0.0
26/03:30am -0.7 -2.9 -1.3 96 0.2 CALM 0 0 0 0 1020.5 1020.9 0.0
26/03:20am -0.4 -2.5 -1.0 96 0.2 CALM 0 0 0 0 1020.5 1020.9 0.0
26/03:04am -0.6 -2.8 -1.2 96 0.2 CALM 0 0 0 0 1020.7 1021.1 0.0
26/03:00am -0.6 -2.8 -1.2 96 0.2 CALM 0 0 0 0 1020.6 1021.0 0.0
26/02:45am 0.3 -1.7 -0.1 97 0.1 CALM 0 0 0 0 1020.7 1021.1 0.0
26/02:30am 0.1 -1.9 -0.3 97 0.2 CALM 0 0 0 0 1020.7 1021.1 0.0
26/02:19am 0.1 -1.9 -0.3 97 0.2 CALM 0 0 0 0 1020.8 1021.2 0.0
26/02:00am -0.1 -2.2 -0.7 96 0.2 CALM 0 0 0 0 1021.0 1021.4 0.0
26/01:36am -0.2 -2.3 -0.8 96 0.2 CALM 0 0 0 0 1020.9 1021.3 0.0
26/01:30am -0.2 -2.3 -0.8 96 0.2 CALM 0 0 0 0 1021.0 1021.4 0.0
26/01:05am 0.2 -1.8 -0.4 96 0.2 CALM 0 0 0 0 1021.2 1021.6 0.0
26/01:00am 0.4 -1.6 -0.2 96 0.2 CALM 0 0 0 0 1021.2 1021.6 0.0
26/12:53am 0.6 -1.4 0.2 97 0.1 CALM 0 0 0 0 1021.3 1021.7 0.0
26/12:40am 0.3 -1.7 -0.3 96 0.2 CALM 0 0 0 0 1021.3 1021.7 0.0
26/12:30am 0.1 -2.0 -0.5 96 0.2 CALM 0 0 0 0 1021.5 1021.9 0.0
26/12:00am 0.7 -1.3 0.1 96 0.2 CALM 0 0 0 0 1022.0 1022.3 0.0
 
Date/Time
EST
Temp
°C
App
Temp
°C
Dew
Point
°C
Rel
Hum
%
Delta-T
°C
Wind Press
QNH
hPa
Press
MSL
hPa
Rain since
9am
mm
Dir  Spd
km/h
Gust
km/h
Spd
kts
Gust
kts
25/11:30pm 1.1 -0.8 0.5 96 0.2 CALM 0 0 0 0 1022.5 1022.8 0.0
25/11:14pm 1.1 -0.8 0.5 96 0.2 CALM 0 0 0 0 1022.4 1022.7 0.0
25/11:00pm 1.6 -0.2 1.0 96 0.2 CALM 0 0 0 0 1022.5 1022.8 0.0
25/10:57pm 1.2 -0.7 0.6 96 0.2 CALM 0 0 0 0 1022.5 1022.8 0.0
25/10:30pm 1.9 0.1 1.3 96 0.2 CALM 0 0 0 0 1022.5 1022.8 0.0
25/10:00pm 1.9 0.1 1.3 96 0.2 CALM 0 0 0 0 1022.4 1022.7 0.0
25/09:56pm 2.3 0.6 1.7 96 0.2 CALM 0 0 0 0 1022.5 1022.8 0.0
25/09:30pm 1.7 -0.1 1.0 95 0.3 CALM 0 0 0 0 1022.5 1022.8 0.0
25/09:00pm 3.2 1.6 2.5 95 0.3 CALM 0 0 0 0 1022.6 1023.0 0.0
25/08:30pm 3.5 2.0 2.8 95 0.3 CALM 0 0 0 0 1022.6 1023.0 0.0
25/08:00pm 3.5 2.0 2.8 95 0.3 CALM 0 0 0 0 1022.7 1023.1 0.0
25/07:30pm 2.8 1.1 1.8 93 0.4 CALM 0 0 0 0 1022.7 1023.1 0.0
25/07:00pm 3.9 2.3 2.7 92 0.5 CALM 0 0 0 0 1022.6 1023.0 0.0
25/06:30pm 4.5 3.0 3.0 90 0.6 CALM 0 0 0 0 1022.6 1023.0 0.0
25/06:00pm 5.0 3.6 3.3 89 0.7 CALM 0 0 0 0 1022.6 1023.0 0.0
25/05:30pm 6.5 5.1 3.3 80 1.4 CALM 0 0 0 0 1022.4 1022.7 0.0
25/05:00pm 8.3 6.5 3.4 71 2.1 SSW 2 7 1 4 1022.3 1022.6 0.0
25/04:30pm 9.5 6.8 3.9 68 2.5 SW 7 13 4 7 1022.4 1022.7 0.0
25/04:00pm 9.9 7.3 4.1 67 2.6 SW 7 13 4 7 1022.4 1022.7 0.0
25/03:30pm 10.0 6.8 3.3 63 2.9 W 9 17 5 9 1022.2 1022.5 0.0
25/03:00pm 10.5 7.9 3.3 61 3.2 WSW 6 13 3 7 1022.3 1022.6 0.0
25/02:30pm 10.0 6.4 2.8 61 3.1 SW 11 22 6 12 1022.4 1022.7 0.0
25/02:00pm 9.8 6.3 3.5 65 2.8 WSW 11 19 6 10 1022.4 1022.7 0.0
25/01:30pm 9.4 5.2 3.8 68 2.5 W 15 20 8 11 1022.7 1023.1 0.0
25/01:00pm 9.0 5.4 3.2 67 2.5 SW 11 17 6 9 1023.0 1023.4 0.0
25/12:30pm 9.3 5.5 3.7 68 2.5 W 13 22 7 12 1023.5 1023.9 0.0
25/12:00pm 8.5 4.1 2.9 68 2.4 WSW 15 20 8 11 1023.7 1024.1 0.0
25/11:30am 8.2 4.6 3.1 70 2.2 WSW 11 17 6 9 1023.7 1024.1 0.0
25/11:00am 8.0 3.8 3.7 74 1.9 WSW 15 20 8 11 1023.8 1024.2 0.0
25/10:30am 7.1 3.1 3.0 75 1.7 WSW 13 20 7 11 1023.8 1024.2 0.0
25/10:00am 6.0 2.0 2.6 79 1.4 WSW 13 17 7 9 1023.7 1024.1 0.0
25/09:30am 4.9 0.8 2.3 83 1.1 W 13 19 7 10 1023.4 1023.8 0.0
25/09:00am 4.0 0.5 1.5 84 1.0 W 9 13 5 7 1023.1 1023.5 0.2
25/08:30am 3.1 -0.4 1.5 89 0.6 W 9 11 5 6 1023.0 1023.4 0.2
25/08:00am 0.9 -1.1 -0.2 92 0.4 CALM 0 4 0 2 1022.9 1023.3 0.2
25/07:30am 2.4 -0.6 0.8 89 0.6 WSW 6 11 3 6 1022.5 1022.8 0.2
25/07:00am 1.8 -1.8 0.6 92 0.5 WSW 9 11 5 6 1021.7 1022.1 0.2
25/06:30am 2.0 -1.6 0.5 90 0.6 SW 9 13 5 7 1021.4 1021.8 0.2
25/06:00am 2.3 -2.0 0.7 89 0.6 WSW 13 19 7 10 1020.9 1021.3 0.2
25/05:30am 3.0 -1.7 1.1 87 0.7 WSW 15 20 8 11 1020.7 1021.1 0.2
25/05:00am 3.3 -1.4 1.0 85 0.9 WSW 15 17 8 9 1020.5 1020.9 0.2
25/04:30am 2.6 -1.0 0.8 88 0.7 SW 9 13 5 7 1020.5 1020.9 0.2
25/04:00am 2.6 -1.7 1.0 89 0.6 SW 13 17 7 9 1020.5 1020.9 0.2
25/03:30am 2.5 -2.6 0.6 87 0.7 WSW 17 22 9 12 1020.4 1020.8 0.2
25/03:00am 2.5 -2.2 0.7 88 0.7 WSW 15 19 8 10 1020.2 1020.6 0.2
25/02:30am 2.2 -2.2 0.6 89 0.6 WSW 13 15 7 8 1020.2 1020.6 0.2
25/02:00am 2.1 -2.7 0.3 88 0.7 SW 15 19 8 10 1019.9 1020.3 0.2
25/01:30am 2.4 -2.4 0.5 87 0.7 SW 15 20 8 11 1019.6 1020.0 0.2
25/01:00am 2.1 -2.3 0.3 88 0.7 WSW 13 17 7 9 1019.5 1019.9 0.2
25/12:30am 2.2 -1.4 0.4 88 0.7 SW 9 15 5 8 1019.2 1019.6 0.2
25/12:00am 1.9 -0.1 -0.2 86 0.8 CALM 0 7 0 4 1019.0 1019.4 0.2
 
Date/Time
EST
Temp
°C
App
Temp
°C
Dew
Point
°C
Rel
Hum
%
Delta-T
°C
Wind Press
QNH
hPa
Press
MSL
hPa
Rain since
9am
mm
Dir  Spd
km/h
Gust
km/h
Spd
kts
Gust
kts
24/11:30pm 2.6 -0.7 0.3 85 0.9 SE 7 9 4 5 1018.8 1019.2 0.2
24/11:00pm 2.7 0.0 0.1 83 1.0 WSW 4 9 2 5 1018.6 1019.0 0.2
24/10:30pm 3.4 -1.7 0.6 82 1.1 WSW 17 20 9 11 1018.2 1018.5 0.2
24/10:00pm 3.7 -2.0 0.8 81 1.1 W 20 24 11 13 1017.7 1018.0 0.2
24/09:30pm 3.6 -2.0 1.0 83 1.0 W 20 26 11 14 1017.4 1017.7 0.2
24/09:00pm 3.9 -1.7 0.9 81 1.2 W 20 26 11 14 1017.0 1017.3 0.2
24/08:30pm 3.3 -2.1 1.0 85 0.9 W 19 24 10 13 1016.5 1016.9 0.2
24/08:00pm 3.6 -1.5 1.0 83 1.0 W 17 20 9 11 1016.1 1016.5 0.2
24/07:30pm 3.8 -0.5 1.0 82 1.1 W 13 20 7 11 1015.6 1016.0 0.2
24/07:00pm 3.3 -0.2 1.2 86 0.8 WSW 9 11 5 6 1015.0 1015.4 0.2
24/06:30pm 3.4 -0.1 1.1 85 0.9 SW 9 15 5 8 1014.6 1015.0 0.2
24/06:00pm 4.4 0.5 1.4 81 1.2 SW 11 17 6 9 1014.0 1014.3 0.2
24/05:30pm 5.8 -0.4 1.9 76 1.6 SW 24 41 13 22 1013.1 1013.4 0.0
24/05:00pm 6.1 0.7 1.1 70 2.0 SW 19 30 10 16 1012.4 1012.7 0.0
24/04:30pm 6.5 0.2 1.4 70 2.1 WSW 24 39 13 21 1011.4 1011.8 0.0
24/04:00pm 6.8 -0.3 1.5 69 2.2 WSW 28 39 15 21 1010.6 1011.0 0.0
24/03:30pm 6.8 1.1 2.9 76 1.6 SW 22 32 12 17 1010.1 1010.4 0.0
24/03:00pm 5.9 -0.6 2.5 79 1.4 SSW 26 39 14 21 1009.9 1010.2 0.0
24/02:30pm 6.5 -0.8 2.2 74 1.8 SW 30 46 16 25 1009.1 1009.4 0.0
24/02:00pm 8.9 2.2 1.6 60 3.1 W 26 41 14 22 1008.2 1008.5 0.0
24/01:38pm 8.9 1.4 0.9 57 3.3 W 30 48 16 26 1007.7 1008.0 0.0
24/01:30pm 8.8 1.2 0.5 56 3.4 W 30 43 16 23 1007.6 1007.9 0.0
24/01:00pm 9.2 1.9 2.3 62 2.9 W 30 41 16 22 1007.5 1007.8 0.0
24/12:30pm 8.3 1.3 1.7 63 2.7 W 28 41 15 22 1007.3 1007.6 0.0
24/12:00pm 8.0 1.4 2.0 66 2.5 W 26 35 14 19 1007.1 1007.4 0.0
24/11:30am 7.4 1.7 2.7 72 2.0 W 22 35 12 19 1006.8 1007.1 0.0
24/11:00am 6.6 1.3 3.2 79 1.4 W 20 28 11 15 1006.3 1006.6 0.0
24/10:54am 6.4 1.3 3.2 80 1.4 W 19 28 10 15 1006.2 1006.5 0.0
24/10:30am 6.0 1.4 3.5 84 1.1 W 17 28 9 15 1006.0 1006.3 0.0
24/10:00am 5.7 0.7 3.7 87 0.9 W 19 30 10 16 1005.8 1006.1 0.0
24/09:30am 5.4 0.2 3.6 88 0.8 WNW 20 33 11 18 1005.0 1005.3 0.0
24/09:00am 5.4 0.8 3.7 89 0.7 WNW 17 28 9 15 1004.4 1004.7 10.4
24/08:30am 5.3 0.1 3.5 88 0.8 WNW 20 30 11 16 1004.1 1004.4 10.4
24/08:00am 5.1 0.1 3.6 90 0.6 WNW 19 30 10 16 1003.6 1003.9 10.4
24/07:39am 5.0 0.4 3.8 92 0.5 WNW 17 26 9 14 1003.3 1003.6 10.4
24/07:30am 5.0 -0.1 4.0 93 0.4 WNW 20 35 11 19 1003.1 1003.4 10.4
24/07:00am 5.1 0.2 4.2 94 0.4 WNW 19 32 10 17 1002.7 1003.0 10.2
24/06:47am 5.1 1.7 4.2 94 0.4 WNW 11 20 6 11 1002.5 1002.8 10.2
24/06:40am 5.1 1.4 4.2 94 0.4 WNW 13 17 7 9 1002.5 1002.8 10.2
24/06:30am 5.0 0.9 4.1 94 0.4 WNW 15 20 8 11 1002.2 1002.4 10.2
24/06:29am 5.1 1.0 4.2 94 0.4 WNW 15 24 8 13 1002.2 1002.4 10.2
24/06:00am 5.1 0.9 3.9 92 0.5 WNW 15 22 8 12 1002.0 1002.2 10.2
24/05:41am 5.0 1.2 3.7 91 0.5 WNW 13 24 7 13 1001.8 1002.0 10.2
24/05:30am 4.8 0.9 3.5 91 0.5 WNW 13 19 7 10 1001.5 1001.8 10.2
24/05:00am 5.1 0.9 3.6 90 0.6 WNW 15 20 8 11 1001.0 1001.3 10.2
24/04:38am 5.2 1.4 3.7 90 0.6 WNW 13 20 7 11 1000.7 1001.0 10.2

Other Formats:

Comma delimited format used in spreadsheet applications
http://www.bom.gov.au/fwo/IDV60801/IDV60801.94855.axf

JavaScript Object Notation format (JSON) in row-major order
http://www.bom.gov.au/fwo/IDV60801/IDV60801.94855.json